sensor_id;sensor_type;location;lat;lon;timestamp;temperature;humidity
22765;DHT22;11549;50.852;3.816;2023-03-21T00:01:14;10.80;99.90
22765;DHT22;11549;50.852;3.816;2023-03-21T00:03:42;10.90;99.90
22765;DHT22;11549;50.852;3.816;2023-03-21T00:06:12;10.80;99.90
22765;DHT22;11549;50.852;3.816;2023-03-21T00:08:41;10.70;99.90
22765;DHT22;11549;50.852;3.816;2023-03-21T00:11:11;10.80;99.90
22765;DHT22;11549;50.852;3.816;2023-03-21T00:13:41;10.70;99.90
22765;DHT22;11549;50.852;3.816;2023-03-21T00:16:11;10.80;99.90
22765;DHT22;11549;50.852;3.816;2023-03-21T00:18:53;10.90;99.90
22765;DHT22;11549;50.852;3.816;2023-03-21T00:21:23;10.70;99.90
22765;DHT22;11549;50.852;3.816;2023-03-21T00:24:14;10.80;99.90
22765;DHT22;11549;50.852;3.816;2023-03-21T00:26:43;11.00;99.90
22765;DHT22;11549;50.852;3.816;2023-03-21T00:29:13;10.80;99.90
22765;DHT22;11549;50.852;3.816;2023-03-21T00:31:41;10.80;99.90
22765;DHT22;11549;50.852;3.816;2023-03-21T00:34:10;10.70;99.90
22765;DHT22;11549;50.852;3.816;2023-03-21T00:36:43;10.70;99.90
22765;DHT22;11549;50.852;3.816;2023-03-21T00:39:12;10.70;99.90
22765;DHT22;11549;50.852;3.816;2023-03-21T00:41:41;10.90;99.90
22765;DHT22;11549;50.852;3.816;2023-03-21T00:44:10;10.80;99.90
22765;DHT22;11549;50.852;3.816;2023-03-21T00:46:43;10.80;99.90
22765;DHT22;11549;50.852;3.816;2023-03-21T00:49:30;10.80;99.90
22765;DHT22;11549;50.852;3.816;2023-03-21T00:52:00;10.80;99.90
22765;DHT22;11549;50.852;3.816;2023-03-21T00:54:44;10.50;99.90
22765;DHT22;11549;50.852;3.816;2023-03-21T00:57:13;10.50;99.90
22765;DHT22;11549;50.852;3.816;2023-03-21T00:59:41;10.50;99.90
22765;DHT22;11549;50.852;3.816;2023-03-21T01:02:10;10.50;99.90
22765;DHT22;11549;50.852;3.816;2023-03-21T01:04:41;10.50;99.90
22765;DHT22;11549;50.852;3.816;2023-03-21T01:07:09;10.60;99.90
22765;DHT22;11549;50.852;3.816;2023-03-21T01:09:37;10.70;99.90
22765;DHT22;11549;50.852;3.816;2023-03-21T01:12:06;10.80;99.90
22765;DHT22;11549;50.852;3.816;2023-03-21T01:14:34;10.70;99.90
22765;DHT22;11549;50.852;3.816;2023-03-21T01:17:03;10.50;99.90
22765;DHT22;11549;50.852;3.816;2023-03-21T01:19:34;10.60;99.90
22765;DHT22;11549;50.852;3.816;2023-03-21T01:22:17;10.70;99.90
22765;DHT22;11549;50.852;3.816;2023-03-21T01:24:45;10.60;99.90
22765;DHT22;11549;50.852;3.816;2023-03-21T01:27:34;10.70;99.90
22765;DHT22;11549;50.852;3.816;2023-03-21T01:30:03;10.70;99.90
22765;DHT22;11549;50.852;3.816;2023-03-21T01:32:43;10.70;99.90
22765;DHT22;11549;50.852;3.816;2023-03-21T01:35:13;10.80;99.90
22765;DHT22;11549;50.852;3.816;2023-03-21T01:37:41;10.80;99.90
22765;DHT22;11549;50.852;3.816;2023-03-21T01:40:12;10.70;99.90
22765;DHT22;11549;50.852;3.816;2023-03-21T01:42:42;10.70;99.90
22765;DHT22;11549;50.852;3.816;2023-03-21T01:48:13;10.70;99.90
22765;DHT22;11549;50.852;3.816;2023-03-21T01:50:44;10.60;99.90
22765;DHT22;11549;50.852;3.816;2023-03-21T01:53:13;10.70;99.90
22765;DHT22;11549;50.852;3.816;2023-03-21T01:55:42;10.70;99.90
22765;DHT22;11549;50.852;3.816;2023-03-21T01:58:11;10.80;99.90
22765;DHT22;11549;50.852;3.816;2023-03-21T02:00:40;10.80;99.90
22765;DHT22;11549;50.852;3.816;2023-03-21T02:03:10;10.70;99.90
22765;DHT22;11549;50.852;3.816;2023-03-21T02:06:03;10.60;99.90
22765;DHT22;11549;50.852;3.816;2023-03-21T02:08:33;10.60;99.90
22765;DHT22;11549;50.852;3.816;2023-03-21T02:11:06;10.50;99.90
22765;DHT22;11549;50.852;3.816;2023-03-21T02:13:36;10.40;99.90
22765;DHT22;11549;50.852;3.816;2023-03-21T02:16:10;10.50;99.90
22765;DHT22;11549;50.852;3.816;2023-03-21T02:18:46;10.50;99.90
22765;DHT22;11549;50.852;3.816;2023-03-21T02:21:38;10.50;99.90
22765;DHT22;11549;50.852;3.816;2023-03-21T02:25:01;10.60;99.90
22765;DHT22;11549;50.852;3.816;2023-03-21T02:27:50;10.60;99.90
22765;DHT22;11549;50.852;3.816;2023-03-21T02:30:47;10.50;99.90
22765;DHT22;11549;50.852;3.816;2023-03-21T02:36:57;10.60;99.90
22765;DHT22;11549;50.852;3.816;2023-03-21T02:39:34;10.70;99.90
22765;DHT22;11549;50.852;3.816;2023-03-21T02:42:12;10.60;99.90
22765;DHT22;11549;50.852;3.816;2023-03-21T02:44:43;10.60;99.90
22765;DHT22;11549;50.852;3.816;2023-03-21T02:47:18;10.50;99.90
22765;DHT22;11549;50.852;3.816;2023-03-21T02:49:53;10.40;99.90
22765;DHT22;11549;50.852;3.816;2023-03-21T02:52:24;10.50;99.90
22765;DHT22;11549;50.852;3.816;2023-03-21T02:55:07;10.50;99.90
22765;DHT22;11549;50.852;3.816;2023-03-21T02:57:41;10.40;99.90
22765;DHT22;11549;50.852;3.816;2023-03-21T03:00:16;10.50;99.90
22765;DHT22;11549;50.852;3.816;2023-03-21T03:02:46;10.40;99.90
22765;DHT22;11549;50.852;3.816;2023-03-21T03:05:27;10.40;99.90
22765;DHT22;11549;50.852;3.816;2023-03-21T03:08:09;10.50;99.90
22765;DHT22;11549;50.852;3.816;2023-03-21T03:10:54;10.60;99.90
22765;DHT22;11549;50.852;3.816;2023-03-21T03:13:36;10.60;99.90
22765;DHT22;11549;50.852;3.816;2023-03-21T03:16:12;10.60;99.90
22765;DHT22;11549;50.852;3.816;2023-03-21T03:18:49;10.50;99.90
22765;DHT22;11549;50.852;3.816;2023-03-21T03:21:23;10.60;99.90
22765;DHT22;11549;50.852;3.816;2023-03-21T03:23:58;10.60;99.90
22765;DHT22;11549;50.852;3.816;2023-03-21T03:26:30;10.70;99.90
22765;DHT22;11549;50.852;3.816;2023-03-21T03:29:03;10.60;99.90
22765;DHT22;11549;50.852;3.816;2023-03-21T03:31:34;10.60;99.90
22765;DHT22;11549;50.852;3.816;2023-03-21T03:34:06;10.70;99.90
22765;DHT22;11549;50.852;3.816;2023-03-21T03:36:40;10.70;99.90
22765;DHT22;11549;50.852;3.816;2023-03-21T03:39:11;10.80;99.90
22765;DHT22;11549;50.852;3.816;2023-03-21T03:41:44;10.70;99.90
22765;DHT22;11549;50.852;3.816;2023-03-21T03:44:36;10.70;99.90
22765;DHT22;11549;50.852;3.816;2023-03-21T03:47:06;10.70;99.90
22765;DHT22;11549;50.852;3.816;2023-03-21T03:49:47;10.70;99.90
22765;DHT22;11549;50.852;3.816;2023-03-21T03:52:20;10.80;99.90
22765;DHT22;11549;50.852;3.816;2023-03-21T03:54:51;10.80;99.90
22765;DHT22;11549;50.852;3.816;2023-03-21T03:57:21;10.90;99.90
22765;DHT22;11549;50.852;3.816;2023-03-21T03:59:49;11.00;99.90
22765;DHT22;11549;50.852;3.816;2023-03-21T04:02:18;11.00;99.90
22765;DHT22;11549;50.852;3.816;2023-03-21T04:04:47;10.90;99.90
22765;DHT22;11549;50.852;3.816;2023-03-21T04:07:19;10.90;99.90
22765;DHT22;11549;50.852;3.816;2023-03-21T04:09:48;10.80;99.90
22765;DHT22;11549;50.852;3.816;2023-03-21T04:12:19;10.90;99.90
22765;DHT22;11549;50.852;3.816;2023-03-21T04:14:47;10.90;99.90
22765;DHT22;11549;50.852;3.816;2023-03-21T04:17:16;10.90;99.90
22765;DHT22;11549;50.852;3.816;2023-03-21T04:19:45;11.00;99.90
22765;DHT22;11549;50.852;3.816;2023-03-21T04:22:13;11.00;99.90
22765;DHT22;11549;50.852;3.816;2023-03-21T04:24:41;11.10;99.90
22765;DHT22;11549;50.852;3.816;2023-03-21T04:27:10;11.10;99.90
22765;DHT22;11549;50.852;3.816;2023-03-21T04:29:41;11.00;99.90
22765;DHT22;11549;50.852;3.816;2023-03-21T04:32:09;11.00;99.90
22765;DHT22;11549;50.852;3.816;2023-03-21T04:34:44;10.90;99.90
22765;DHT22;11549;50.852;3.816;2023-03-21T04:37:16;10.90;99.90
22765;DHT22;11549;50.852;3.816;2023-03-21T04:39:45;10.90;99.90
22765;DHT22;11549;50.852;3.816;2023-03-21T04:42:14;11.00;99.90
22765;DHT22;11549;50.852;3.816;2023-03-21T04:44:46;11.10;99.90
22765;DHT22;11549;50.852;3.816;2023-03-21T04:47:15;11.00;99.90
22765;DHT22;11549;50.852;3.816;2023-03-21T04:49:46;11.00;99.90
22765;DHT22;11549;50.852;3.816;2023-03-21T04:52:15;11.00;99.90
22765;DHT22;11549;50.852;3.816;2023-03-21T04:54:43;10.90;99.90
22765;DHT22;11549;50.852;3.816;2023-03-21T04:57:12;10.90;99.90
22765;DHT22;11549;50.852;3.816;2023-03-21T04:59:40;10.90;99.90
22765;DHT22;11549;50.852;3.816;2023-03-21T05:02:10;10.90;99.90
22765;DHT22;11549;50.852;3.816;2023-03-21T05:04:39;10.90;99.90
22765;DHT22;11549;50.852;3.816;2023-03-21T05:07:07;10.90;99.90
22765;DHT22;11549;50.852;3.816;2023-03-21T05:09:35;10.90;99.90
22765;DHT22;11549;50.852;3.816;2023-03-21T05:12:04;11.00;99.90
22765;DHT22;11549;50.852;3.816;2023-03-21T05:14:32;11.00;99.90
22765;DHT22;11549;50.852;3.816;2023-03-21T05:17:01;11.10;99.90
22765;DHT22;11549;50.852;3.816;2023-03-21T05:19:32;10.90;99.90
22765;DHT22;11549;50.852;3.816;2023-03-21T05:22:08;10.90;99.90
22765;DHT22;11549;50.852;3.816;2023-03-21T05:24:38;10.80;99.90
22765;DHT22;11549;50.852;3.816;2023-03-21T05:27:08;10.70;99.90
22765;DHT22;11549;50.852;3.816;2023-03-21T05:29:36;10.80;99.90
22765;DHT22;11549;50.852;3.816;2023-03-21T05:32:04;10.80;99.90
22765;DHT22;11549;50.852;3.816;2023-03-21T05:34:34;10.80;99.90
22765;DHT22;11549;50.852;3.816;2023-03-21T05:37:02;10.80;99.90
22765;DHT22;11549;50.852;3.816;2023-03-21T05:39:30;10.80;99.90
22765;DHT22;11549;50.852;3.816;2023-03-21T05:41:59;10.70;99.90
22765;DHT22;11549;50.852;3.816;2023-03-21T05:44:27;10.70;99.90
22765;DHT22;11549;50.852;3.816;2023-03-21T05:46:56;10.60;99.90
22765;DHT22;11549;50.852;3.816;2023-03-21T05:49:24;10.60;99.90
22765;DHT22;11549;50.852;3.816;2023-03-21T05:51:54;10.60;99.90
22765;DHT22;11549;50.852;3.816;2023-03-21T05:54:22;10.50;99.90
22765;DHT22;11549;50.852;3.816;2023-03-21T05:56:51;10.50;99.90
22765;DHT22;11549;50.852;3.816;2023-03-21T05:59:19;10.40;99.90
22765;DHT22;11549;50.852;3.816;2023-03-21T06:01:48;10.40;99.90
22765;DHT22;11549;50.852;3.816;2023-03-21T06:04:16;10.50;99.90
22765;DHT22;11549;50.852;3.816;2023-03-21T06:06:45;10.50;99.90
22765;DHT22;11549;50.852;3.816;2023-03-21T06:09:14;10.50;99.90
22765;DHT22;11549;50.852;3.816;2023-03-21T06:11:48;10.60;99.90
22765;DHT22;11549;50.852;3.816;2023-03-21T06:14:18;10.60;99.90
22765;DHT22;11549;50.852;3.816;2023-03-21T06:16:47;10.50;99.90
22765;DHT22;11549;50.852;3.816;2023-03-21T06:19:16;10.60;99.90
22765;DHT22;11549;50.852;3.816;2023-03-21T06:21:44;10.60;99.90
22765;DHT22;11549;50.852;3.816;2023-03-21T06:24:14;10.70;99.90
22765;DHT22;11549;50.852;3.816;2023-03-21T06:26:44;10.60;99.90
22765;DHT22;11549;50.852;3.816;2023-03-21T06:29:12;10.70;99.90
22765;DHT22;11549;50.852;3.816;2023-03-21T06:31:41;10.70;99.90
22765;DHT22;11549;50.852;3.816;2023-03-21T06:34:09;10.70;99.90
22765;DHT22;11549;50.852;3.816;2023-03-21T06:36:37;10.70;99.90
22765;DHT22;11549;50.852;3.816;2023-03-21T06:39:06;10.70;99.90
22765;DHT22;11549;50.852;3.816;2023-03-21T06:41:36;10.80;99.90
22765;DHT22;11549;50.852;3.816;2023-03-21T06:44:07;10.80;99.90
22765;DHT22;11549;50.852;3.816;2023-03-21T06:46:35;10.80;99.90
22765;DHT22;11549;50.852;3.816;2023-03-21T06:49:03;10.90;99.90
22765;DHT22;11549;50.852;3.816;2023-03-21T06:51:32;11.00;99.90
22765;DHT22;11549;50.852;3.816;2023-03-21T06:54:00;11.00;99.90
22765;DHT22;11549;50.852;3.816;2023-03-21T06:56:29;11.00;99.90
22765;DHT22;11549;50.852;3.816;2023-03-21T06:58:58;11.00;99.90
22765;DHT22;11549;50.852;3.816;2023-03-21T07:01:27;11.00;99.90
22765;DHT22;11549;50.852;3.816;2023-03-21T07:03:56;10.90;99.90
22765;DHT22;11549;50.852;3.816;2023-03-21T07:06:25;11.00;99.90
22765;DHT22;11549;50.852;3.816;2023-03-21T07:08:54;10.90;99.90
22765;DHT22;11549;50.852;3.816;2023-03-21T07:11:23;10.90;99.90
22765;DHT22;11549;50.852;3.816;2023-03-21T07:13:52;10.90;99.90
22765;DHT22;11549;50.852;3.816;2023-03-21T07:16:21;11.00;99.90
22765;DHT22;11549;50.852;3.816;2023-03-21T07:18:52;11.00;99.90
22765;DHT22;11549;50.852;3.816;2023-03-21T07:21:20;11.00;99.90
22765;DHT22;11549;50.852;3.816;2023-03-21T07:23:48;11.10;99.90
22765;DHT22;11549;50.852;3.816;2023-03-21T07:26:17;11.10;99.90
22765;DHT22;11549;50.852;3.816;2023-03-21T07:28:45;11.20;99.90
22765;DHT22;11549;50.852;3.816;2023-03-21T07:31:15;11.20;99.90
22765;DHT22;11549;50.852;3.816;2023-03-21T07:33:45;11.20;99.90
22765;DHT22;11549;50.852;3.816;2023-03-21T07:36:14;11.10;99.90
22765;DHT22;11549;50.852;3.816;2023-03-21T07:38:43;11.10;99.90
22765;DHT22;11549;50.852;3.816;2023-03-21T07:41:12;11.20;99.90
22765;DHT22;11549;50.852;3.816;2023-03-21T07:43:45;11.30;99.90
22765;DHT22;11549;50.852;3.816;2023-03-21T07:46:14;11.20;99.90
22765;DHT22;11549;50.852;3.816;2023-03-21T07:48:42;11.30;99.90
22765;DHT22;11549;50.852;3.816;2023-03-21T07:51:12;11.30;99.90
22765;DHT22;11549;50.852;3.816;2023-03-21T07:53:40;11.40;99.90
22765;DHT22;11549;50.852;3.816;2023-03-21T07:56:09;11.50;99.90
22765;DHT22;11549;50.852;3.816;2023-03-21T07:58:37;11.60;99.90
22765;DHT22;11549;50.852;3.816;2023-03-21T08:01:06;11.50;99.90
22765;DHT22;11549;50.852;3.816;2023-03-21T08:03:34;11.50;99.90
22765;DHT22;11549;50.852;3.816;2023-03-21T08:06:04;11.50;99.90
22765;DHT22;11549;50.852;3.816;2023-03-21T08:08:34;11.50;99.90
22765;DHT22;11549;50.852;3.816;2023-03-21T08:11:03;11.60;99.90
22765;DHT22;11549;50.852;3.816;2023-03-21T08:13:31;11.70;99.90
22765;DHT22;11549;50.852;3.816;2023-03-21T08:16:00;11.60;99.90
22765;DHT22;11549;50.852;3.816;2023-03-21T08:18:28;11.60;99.90
22765;DHT22;11549;50.852;3.816;2023-03-21T08:20:57;11.60;99.90
22765;DHT22;11549;50.852;3.816;2023-03-21T08:23:25;11.60;99.90
22765;DHT22;11549;50.852;3.816;2023-03-21T08:25:55;11.60;99.90
22765;DHT22;11549;50.852;3.816;2023-03-21T08:28:24;11.80;99.90
22765;DHT22;11549;50.852;3.816;2023-03-21T08:30:53;11.90;99.90
22765;DHT22;11549;50.852;3.816;2023-03-21T08:33:21;11.90;99.90
22765;DHT22;11549;50.852;3.816;2023-03-21T08:35:50;12.10;99.90
22765;DHT22;11549;50.852;3.816;2023-03-21T08:38:19;12.20;99.90
22765;DHT22;11549;50.852;3.816;2023-03-21T08:40:47;12.30;99.90
22765;DHT22;11549;50.852;3.816;2023-03-21T08:43:18;12.30;99.90
22765;DHT22;11549;50.852;3.816;2023-03-21T08:45:47;12.40;99.90
22765;DHT22;11549;50.852;3.816;2023-03-21T08:48:16;12.50;99.90
22765;DHT22;11549;50.852;3.816;2023-03-21T08:50:44;12.40;99.90
22765;DHT22;11549;50.852;3.816;2023-03-21T08:53:12;12.50;99.90
22765;DHT22;11549;50.852;3.816;2023-03-21T08:55:41;12.40;99.90
22765;DHT22;11549;50.852;3.816;2023-03-21T08:58:10;12.50;99.90
22765;DHT22;11549;50.852;3.816;2023-03-21T09:00:39;12.50;99.90
22765;DHT22;11549;50.852;3.816;2023-03-21T09:03:08;12.60;99.90
22765;DHT22;11549;50.852;3.816;2023-03-21T09:05:37;12.60;99.90
22765;DHT22;11549;50.852;3.816;2023-03-21T09:08:06;12.70;99.90
22765;DHT22;11549;50.852;3.816;2023-03-21T09:10:36;12.80;99.90
22765;DHT22;11549;50.852;3.816;2023-03-21T09:13:04;12.80;99.90
22765;DHT22;11549;50.852;3.816;2023-03-21T09:15:32;12.80;99.90
22765;DHT22;11549;50.852;3.816;2023-03-21T09:18:02;12.80;99.90
22765;DHT22;11549;50.852;3.816;2023-03-21T09:20:40;12.80;99.90
22765;DHT22;11549;50.852;3.816;2023-03-21T09:23:10;12.80;99.90
22765;DHT22;11549;50.852;3.816;2023-03-21T09:25:39;12.80;99.90
22765;DHT22;11549;50.852;3.816;2023-03-21T09:28:08;12.80;99.90
22765;DHT22;11549;50.852;3.816;2023-03-21T09:30:38;12.90;99.90
22765;DHT22;11549;50.852;3.816;2023-03-21T09:33:08;12.80;99.90
22765;DHT22;11549;50.852;3.816;2023-03-21T09:35:39;12.80;99.90
22765;DHT22;11549;50.852;3.816;2023-03-21T09:38:08;12.90;99.90
22765;DHT22;11549;50.852;3.816;2023-03-21T09:40:50;12.90;99.90
22765;DHT22;11549;50.852;3.816;2023-03-21T09:43:34;13.00;99.90
22765;DHT22;11549;50.852;3.816;2023-03-21T09:46:07;12.90;99.90
22765;DHT22;11549;50.852;3.816;2023-03-21T09:48:41;13.00;99.90
22765;DHT22;11549;50.852;3.816;2023-03-21T09:51:25;13.10;99.90
22765;DHT22;11549;50.852;3.816;2023-03-21T09:53:56;13.20;99.90
22765;DHT22;11549;50.852;3.816;2023-03-21T09:56:25;13.30;99.90
22765;DHT22;11549;50.852;3.816;2023-03-21T09:58:55;13.30;99.90
22765;DHT22;11549;50.852;3.816;2023-03-21T10:01:26;13.40;99.90
22765;DHT22;11549;50.852;3.816;2023-03-21T10:04:00;13.40;99.90
22765;DHT22;11549;50.852;3.816;2023-03-21T10:06:30;13.50;99.90
22765;DHT22;11549;50.852;3.816;2023-03-21T10:09:01;13.50;99.90
22765;DHT22;11549;50.852;3.816;2023-03-21T10:11:40;13.70;99.90
22765;DHT22;11549;50.852;3.816;2023-03-21T10:14:17;13.80;99.90
22765;DHT22;11549;50.852;3.816;2023-03-21T10:16:48;13.90;99.90
22765;DHT22;11549;50.852;3.816;2023-03-21T10:19:19;14.00;99.90
22765;DHT22;11549;50.852;3.816;2023-03-21T10:21:49;14.20;99.90
22765;DHT22;11549;50.852;3.816;2023-03-21T10:24:30;14.30;99.90
22765;DHT22;11549;50.852;3.816;2023-03-21T10:27:01;14.50;99.90
22765;DHT22;11549;50.852;3.816;2023-03-21T10:29:32;14.30;99.90
22765;DHT22;11549;50.852;3.816;2023-03-21T10:32:03;14.20;99.90
22765;DHT22;11549;50.852;3.816;2023-03-21T10:34:36;14.10;99.90
22765;DHT22;11549;50.852;3.816;2023-03-21T10:37:07;14.00;99.90
22765;DHT22;11549;50.852;3.816;2023-03-21T10:39:37;13.90;99.90
22765;DHT22;11549;50.852;3.816;2023-03-21T10:42:17;13.90;99.90
22765;DHT22;11549;50.852;3.816;2023-03-21T10:44:49;13.70;99.90
22765;DHT22;11549;50.852;3.816;2023-03-21T10:47:23;13.70;99.90
22765;DHT22;11549;50.852;3.816;2023-03-21T10:49:54;13.70;99.90
22765;DHT22;11549;50.852;3.816;2023-03-21T10:52:34;13.70;99.90
22765;DHT22;11549;50.852;3.816;2023-03-21T10:55:07;13.80;99.90
22765;DHT22;11549;50.852;3.816;2023-03-21T10:57:44;14.10;99.90
22765;DHT22;11549;50.852;3.816;2023-03-21T11:00:18;14.30;99.90
22765;DHT22;11549;50.852;3.816;2023-03-21T11:02:49;14.60;99.90
22765;DHT22;11549;50.852;3.816;2023-03-21T11:05:23;15.00;99.90
22765;DHT22;11549;50.852;3.816;2023-03-21T11:08:00;15.30;99.90
22765;DHT22;11549;50.852;3.816;2023-03-21T11:10:31;15.40;99.90
22765;DHT22;11549;50.852;3.816;2023-03-21T11:13:04;15.50;99.90
22765;DHT22;11549;50.852;3.816;2023-03-21T11:15:51;15.50;99.90
22765;DHT22;11549;50.852;3.816;2023-03-21T11:18:21;15.60;99.90
22765;DHT22;11549;50.852;3.816;2023-03-21T11:20:54;15.60;99.90
22765;DHT22;11549;50.852;3.816;2023-03-21T11:23:26;15.60;99.90
22765;DHT22;11549;50.852;3.816;2023-03-21T11:25:56;15.50;99.90
22765;DHT22;11549;50.852;3.816;2023-03-21T11:28:32;15.30;99.90
22765;DHT22;11549;50.852;3.816;2023-03-21T11:31:04;15.20;99.90
22765;DHT22;11549;50.852;3.816;2023-03-21T11:33:36;15.20;99.90
22765;DHT22;11549;50.852;3.816;2023-03-21T11:36:31;15.00;99.90
22765;DHT22;11549;50.852;3.816;2023-03-21T11:39:26;15.00;99.90
22765;DHT22;11549;50.852;3.816;2023-03-21T11:41:55;14.90;99.90
22765;DHT22;11549;50.852;3.816;2023-03-21T11:44:29;14.90;99.90
22765;DHT22;11549;50.852;3.816;2023-03-21T11:46:58;15.00;99.90
22765;DHT22;11549;50.852;3.816;2023-03-21T11:49:27;15.00;99.90
22765;DHT22;11549;50.852;3.816;2023-03-21T11:52:05;15.10;99.90
22765;DHT22;11549;50.852;3.816;2023-03-21T11:54:58;15.10;99.90
22765;DHT22;11549;50.852;3.816;2023-03-21T11:57:36;15.10;99.90
22765;DHT22;11549;50.852;3.816;2023-03-21T12:00:10;15.10;99.90
22765;DHT22;11549;50.852;3.816;2023-03-21T12:06:18;15.20;99.90
22765;DHT22;11549;50.852;3.816;2023-03-21T12:09:03;15.30;99.90
22765;DHT22;11549;50.852;3.816;2023-03-21T12:11:40;15.30;99.90
22765;DHT22;11549;50.852;3.816;2023-03-21T12:14:20;15.40;99.90
22765;DHT22;11549;50.852;3.816;2023-03-21T12:16:58;15.40;99.90
22765;DHT22;11549;50.852;3.816;2023-03-21T12:19:52;15.40;99.90
22765;DHT22;11549;50.852;3.816;2023-03-21T12:22:29;15.40;99.90
22765;DHT22;11549;50.852;3.816;2023-03-21T12:25:05;15.50;99.90
22765;DHT22;11549;50.852;3.816;2023-03-21T12:27:43;15.50;99.90
22765;DHT22;11549;50.852;3.816;2023-03-21T12:30:26;15.50;99.90
22765;DHT22;11549;50.852;3.816;2023-03-21T12:33:09;15.70;99.90
22765;DHT22;11549;50.852;3.816;2023-03-21T12:35:53;15.70;99.90
22765;DHT22;11549;50.852;3.816;2023-03-21T12:38:27;15.80;99.90
22765;DHT22;11549;50.852;3.816;2023-03-21T12:41:15;15.90;99.90
22765;DHT22;11549;50.852;3.816;2023-03-21T12:43:49;15.90;99.90
22765;DHT22;11549;50.852;3.816;2023-03-21T12:46:25;15.90;99.90
22765;DHT22;11549;50.852;3.816;2023-03-21T12:48:57;15.90;99.90
22765;DHT22;11549;50.852;3.816;2023-03-21T12:51:30;15.90;99.90
22765;DHT22;11549;50.852;3.816;2023-03-21T12:54:08;15.80;99.90
22765;DHT22;11549;50.852;3.816;2023-03-21T12:56:46;15.90;99.90
22765;DHT22;11549;50.852;3.816;2023-03-21T12:59:29;15.70;99.90
22765;DHT22;11549;50.852;3.816;2023-03-21T13:02:02;15.80;99.90
22765;DHT22;11549;50.852;3.816;2023-03-21T13:04:39;15.80;99.90
22765;DHT22;11549;50.852;3.816;2023-03-21T13:07:13;15.70;99.90
22765;DHT22;11549;50.852;3.816;2023-03-21T13:09:44;15.70;99.90
22765;DHT22;11549;50.852;3.816;2023-03-21T13:12:32;15.70;99.90
22765;DHT22;11549;50.852;3.816;2023-03-21T13:15:16;15.80;99.90
22765;DHT22;11549;50.852;3.816;2023-03-21T13:17:57;15.70;99.90
22765;DHT22;11549;50.852;3.816;2023-03-21T13:20:34;15.50;99.90
22765;DHT22;11549;50.852;3.816;2023-03-21T13:23:06;15.30;99.90
22765;DHT22;11549;50.852;3.816;2023-03-21T13:25:41;15.20;99.90
22765;DHT22;11549;50.852;3.816;2023-03-21T13:28:19;15.00;99.90
22765;DHT22;11549;50.852;3.816;2023-03-21T13:30:48;14.90;99.90
22765;DHT22;11549;50.852;3.816;2023-03-21T13:33:21;14.90;99.90
22765;DHT22;11549;50.852;3.816;2023-03-21T13:35:58;14.90;99.90
22765;DHT22;11549;50.852;3.816;2023-03-21T13:38:32;14.70;99.90
22765;DHT22;11549;50.852;3.816;2023-03-21T13:41:06;14.60;99.90
22765;DHT22;11549;50.852;3.816;2023-03-21T13:43:42;14.60;99.90
22765;DHT22;11549;50.852;3.816;2023-03-21T13:46:13;14.50;99.90
22765;DHT22;11549;50.852;3.816;2023-03-21T13:48:44;14.50;99.90
22765;DHT22;11549;50.852;3.816;2023-03-21T13:51:42;14.50;99.90
22765;DHT22;11549;50.852;3.816;2023-03-21T13:54:19;14.40;99.90
22765;DHT22;11549;50.852;3.816;2023-03-21T13:56:50;14.40;99.90
22765;DHT22;11549;50.852;3.816;2023-03-21T13:59:36;14.50;99.90
22765;DHT22;11549;50.852;3.816;2023-03-21T14:02:22;14.40;99.90
22765;DHT22;11549;50.852;3.816;2023-03-21T14:04:57;14.30;99.90
22765;DHT22;11549;50.852;3.816;2023-03-21T14:07:33;14.30;99.90
22765;DHT22;11549;50.852;3.816;2023-03-21T14:10:05;14.10;99.90
22765;DHT22;11549;50.852;3.816;2023-03-21T14:12:38;14.10;99.90
22765;DHT22;11549;50.852;3.816;2023-03-21T14:15:17;13.90;99.90
22765;DHT22;11549;50.852;3.816;2023-03-21T14:17:50;14.00;99.90
22765;DHT22;11549;50.852;3.816;2023-03-21T14:20:21;14.00;99.90
22765;DHT22;11549;50.852;3.816;2023-03-21T14:22:49;13.90;99.90
22765;DHT22;11549;50.852;3.816;2023-03-21T14:25:20;14.00;99.90
22765;DHT22;11549;50.852;3.816;2023-03-21T14:27:53;14.00;99.90
22765;DHT22;11549;50.852;3.816;2023-03-21T14:30:24;14.10;99.90
22765;DHT22;11549;50.852;3.816;2023-03-21T14:32:54;14.10;99.90
22765;DHT22;11549;50.852;3.816;2023-03-21T14:35:28;14.10;99.90
22765;DHT22;11549;50.852;3.816;2023-03-21T14:37:59;14.20;99.90
22765;DHT22;11549;50.852;3.816;2023-03-21T14:40:28;14.20;99.90
22765;DHT22;11549;50.852;3.816;2023-03-21T14:43:03;14.30;99.90
22765;DHT22;11549;50.852;3.816;2023-03-21T14:45:35;14.40;99.90
22765;DHT22;11549;50.852;3.816;2023-03-21T14:48:07;14.30;99.90
22765;DHT22;11549;50.852;3.816;2023-03-21T14:50:41;14.30;99.90
22765;DHT22;11549;50.852;3.816;2023-03-21T14:53:15;14.30;99.90
22765;DHT22;11549;50.852;3.816;2023-03-21T14:55:50;14.30;99.90
22765;DHT22;11549;50.852;3.816;2023-03-21T14:58:20;14.30;99.90
22765;DHT22;11549;50.852;3.816;2023-03-21T15:00:52;14.30;99.90
22765;DHT22;11549;50.852;3.816;2023-03-21T15:03:22;14.40;99.90
22765;DHT22;11549;50.852;3.816;2023-03-21T15:05:53;14.40;99.90
22765;DHT22;11549;50.852;3.816;2023-03-21T15:08:24;14.40;99.90
22765;DHT22;11549;50.852;3.816;2023-03-21T15:10:57;14.20;99.90
22765;DHT22;11549;50.852;3.816;2023-03-21T15:13:35;14.20;99.90
22765;DHT22;11549;50.852;3.816;2023-03-21T15:16:07;14.30;99.90
22765;DHT22;11549;50.852;3.816;2023-03-21T15:18:37;14.30;99.90
22765;DHT22;11549;50.852;3.816;2023-03-21T15:21:09;14.30;99.90
22765;DHT22;11549;50.852;3.816;2023-03-21T15:23:40;14.40;99.90
22765;DHT22;11549;50.852;3.816;2023-03-21T15:26:14;14.40;99.90
22765;DHT22;11549;50.852;3.816;2023-03-21T15:28:43;14.60;99.90
22765;DHT22;11549;50.852;3.816;2023-03-21T15:31:16;14.70;99.90
22765;DHT22;11549;50.852;3.816;2023-03-21T15:33:46;14.70;99.90
22765;DHT22;11549;50.852;3.816;2023-03-21T15:36:18;14.80;99.90
22765;DHT22;11549;50.852;3.816;2023-03-21T15:38:48;14.90;99.90
22765;DHT22;11549;50.852;3.816;2023-03-21T15:41:25;15.10;99.90
22765;DHT22;11549;50.852;3.816;2023-03-21T15:44:01;15.20;99.90
22765;DHT22;11549;50.852;3.816;2023-03-21T15:46:39;15.30;99.90
22765;DHT22;11549;50.852;3.816;2023-03-21T15:49:16;15.40;99.90
22765;DHT22;11549;50.852;3.816;2023-03-21T15:51:49;15.40;99.90
22765;DHT22;11549;50.852;3.816;2023-03-21T15:54:22;15.30;99.90
22765;DHT22;11549;50.852;3.816;2023-03-21T15:56:53;15.30;99.90
22765;DHT22;11549;50.852;3.816;2023-03-21T15:59:24;15.30;99.90
22765;DHT22;11549;50.852;3.816;2023-03-21T16:01:55;15.20;99.90
22765;DHT22;11549;50.852;3.816;2023-03-21T16:04:24;15.20;99.90
22765;DHT22;11549;50.852;3.816;2023-03-21T16:06:58;15.00;99.90
22765;DHT22;11549;50.852;3.816;2023-03-21T16:09:37;15.00;99.90
22765;DHT22;11549;50.852;3.816;2023-03-21T16:12:10;15.00;99.90
22765;DHT22;11549;50.852;3.816;2023-03-21T16:14:39;15.00;99.90